CES6820 ZGHA-ZSAM
Flight info
| Callsign | CES6820 |
|---|---|
| Flight time | N/A |
| Altitude | 35100 |
| Route | PAT7W PATVO W227 GUTGO W530 LEPMI W46 PULES W19 RUNEK/K0902S1100 W19 PLT/K0911S1070 DCT TEBON TEBON8X |
| Aircraft | B77W/H-SDE2E3FGILRWXY/LB2 |
Departure
| Time | 2026-04-26 02:18 |
|---|---|
| Airport | Changsha Huanghua International Airport (ZGHA) |
Arrival
| Time | N/A |
|---|---|
| Airport | Xiamen Gaoqi International Airport (ZSAM) |
| Time | Latitude | Longitude | Altitude | Speed | Heading |
|---|---|---|---|---|---|
| 2026-04-26 01:54 | 28.19000 | 113.21607 | 218 ft | 0 kts | 269° |
| 2026-04-26 02:04 | 28.19000 | 113.21619 | 223 ft | 3 kts | 271° |
| 2026-04-26 02:05 | 28.19000 | 113.21642 | 218 ft | 3 kts | 270° |
| 2026-04-26 02:05 | 28.19000 | 113.21665 | 219 ft | 3 kts | 270° |
| 2026-04-26 02:05 | 28.19000 | 113.21688 | 219 ft | 3 kts | 270° |
| 2026-04-26 02:05 | 28.19000 | 113.21710 | 219 ft | 2 kts | 270° |
| 2026-04-26 02:06 | 28.19000 | 113.21715 | 219 ft | 0 kts | 270° |
| 2026-04-26 02:11 | 28.19000 | 113.21710 | 222 ft | 3 kts | 270° |
| 2026-04-26 02:12 | 28.19038 | 113.21673 | 227 ft | 14 kts | 347° |
| 2026-04-26 02:12 | 28.19138 | 113.21665 | 221 ft | 14 kts | 357° |
| 2026-04-26 02:12 | 28.19177 | 113.21700 | 227 ft | 8 kts | 96° |
| 2026-04-26 02:12 | 28.19191 | 113.21755 | 224 ft | 9 kts | 30° |
| 2026-04-26 02:13 | 28.19249 | 113.21768 | 221 ft | 9 kts | 1° |
| 2026-04-26 02:13 | 28.19312 | 113.21765 | 222 ft | 9 kts | 357° |
| 2026-04-26 02:13 | 28.19390 | 113.21760 | 222 ft | 13 kts | 357° |
| 2026-04-26 02:13 | 28.19488 | 113.21754 | 222 ft | 14 kts | 357° |
| 2026-04-26 02:14 | 28.19589 | 113.21748 | 222 ft | 15 kts | 357° |
| 2026-04-26 02:14 | 28.19691 | 113.21742 | 222 ft | 15 kts | 356° |
| 2026-04-26 02:14 | 28.19793 | 113.21735 | 222 ft | 15 kts | 357° |
| 2026-04-26 02:14 | 28.19895 | 113.21729 | 223 ft | 15 kts | 356° |
| 2026-04-26 02:15 | 28.19997 | 113.21723 | 223 ft | 15 kts | 357° |
| 2026-04-26 02:15 | 28.20099 | 113.21716 | 223 ft | 15 kts | 356° |
| 2026-04-26 02:15 | 28.20201 | 113.21710 | 220 ft | 15 kts | 356° |
| 2026-04-26 02:15 | 28.20302 | 113.21703 | 220 ft | 15 kts | 356° |
| 2026-04-26 02:16 | 28.20404 | 113.21697 | 221 ft | 15 kts | 357° |
| 2026-04-26 02:16 | 28.20506 | 113.21690 | 221 ft | 15 kts | 357° |
| 2026-04-26 02:16 | 28.20585 | 113.21703 | 222 ft | 11 kts | 39° |
| 2026-04-26 02:16 | 28.20605 | 113.21787 | 220 ft | 11 kts | 90° |
| 2026-04-26 02:17 | 28.20575 | 113.21864 | 226 ft | 11 kts | 147° |
| 2026-04-26 02:17 | 28.20505 | 113.21880 | 224 ft | 0 kts | 176° |
| 2026-04-26 02:17 | 28.20489 | 113.21881 | 224 ft | 13 kts | 176° |
| 2026-04-26 02:17 | 28.20196 | 113.21900 | 221 ft | 82 kts | 176° |
| 2026-04-26 02:18 | 28.19350 | 113.21948 | 223 ft | 157 kts | 177° |
| 2026-04-26 02:18 | 28.18134 | 113.22008 | 657 ft | 175 kts | 174° |
| 2026-04-26 02:18 | 28.16969 | 113.22202 | 1654 ft | 168 kts | 175° |
| 2026-04-26 02:18 | 28.15807 | 113.22340 | 2500 ft | 175 kts | 176° |
| 2026-04-26 02:19 | 28.14497 | 113.22396 | 2835 ft | 202 kts | 179° |
| 2026-04-26 02:19 | 28.12963 | 113.22438 | 3225 ft | 237 kts | 179° |
| 2026-04-26 02:19 | 28.11294 | 113.22657 | 3878 ft | 249 kts | 163° |
| 2026-04-26 02:19 | 28.09791 | 113.23681 | 4713 ft | 258 kts | 137° |
| 2026-04-26 02:20 | 28.08681 | 113.25286 | 5662 ft | 261 kts | 122° |
| 2026-04-26 02:20 | 28.08166 | 113.27269 | 6522 ft | 267 kts | 97° |
| 2026-04-26 02:20 | 28.08061 | 113.29401 | 7250 ft | 275 kts | 92° |
| 2026-04-26 02:20 | 28.07984 | 113.31595 | 7987 ft | 281 kts | 92° |
| 2026-04-26 02:21 | 28.07888 | 113.33786 | 8862 ft | 284 kts | 92° |
| 2026-04-26 02:21 | 28.07769 | 113.36053 | 9532 ft | 295 kts | 92° |
| 2026-04-26 02:21 | 28.07629 | 113.38420 | 10163 ft | 306 kts | 92° |
| 2026-04-26 02:21 | 28.07407 | 113.41894 | 10690 ft | 339 kts | 93° |
| 2026-04-26 02:22 | 28.06940 | 113.47696 | 11388 ft | 389 kts | 96° |
| 2026-04-26 02:22 | 28.06167 | 113.53835 | 13034 ft | 407 kts | 98° |
| 2026-04-26 02:22 | 28.05356 | 113.60274 | 14750 ft | 421 kts | 97° |
| 2026-04-26 02:22 | 28.04533 | 113.67042 | 16416 ft | 434 kts | 97° |
| 2026-04-26 02:23 | 28.04299 | 113.73818 | 17991 ft | 444 kts | 82° |
| 2026-04-26 02:23 | 28.05266 | 113.80814 | 19474 ft | 454 kts | 78° |
| 2026-04-26 02:23 | 28.06281 | 113.87958 | 21013 ft | 463 kts | 79° |
| 2026-04-26 02:23 | 28.07210 | 113.95235 | 22497 ft | 472 kts | 79° |
| 2026-04-26 02:24 | 28.08112 | 114.02692 | 23841 ft | 482 kts | 79° |
| 2026-04-26 02:24 | 28.09021 | 114.10278 | 24954 ft | 492 kts | 79° |
| 2026-04-26 02:24 | 28.09952 | 114.18049 | 26047 ft | 502 kts | 79° |
| 2026-04-26 02:24 | 28.10896 | 114.25942 | 27112 ft | 511 kts | 79° |
| 2026-04-26 02:25 | 28.11858 | 114.34022 | 28093 ft | 521 kts | 79° |
| 2026-04-26 02:25 | 28.12954 | 114.42164 | 29031 ft | 528 kts | 77° |
| 2026-04-26 02:25 | 28.13781 | 114.47725 | 29611 ft | 533 kts | 76° |
| 2026-04-26 02:25 | 28.15001 | 114.55960 | 30417 ft | 538 kts | 76° |
| 2026-04-26 02:26 | 28.16202 | 114.64317 | 31421 ft | 536 kts | 76° |
| 2026-04-26 02:26 | 28.17777 | 114.75457 | 32707 ft | 534 kts | 75° |
| 2026-04-26 02:26 | 28.18947 | 114.83748 | 33622 ft | 533 kts | 75° |
| 2026-04-26 02:26 | 28.19720 | 114.89242 | 34198 ft | 532 kts | 75° |
| 2026-04-26 02:27 | 28.20879 | 114.97506 | 34938 ft | 531 kts | 75° |
| 2026-04-26 02:27 | 28.22043 | 115.05826 | 35175 ft | 536 kts | 75° |
| 2026-04-26 02:27 | 28.24020 | 115.13778 | 35150 ft | 514 kts | 56° |
| 2026-04-26 02:27 | 28.27944 | 115.20322 | 35118 ft | 489 kts | 37° |
| 2026-04-26 02:28 | 28.32631 | 115.25890 | 35111 ft | 500 kts | 47° |
| 2026-04-26 02:28 | 28.35316 | 115.33387 | 35124 ft | 530 kts | 74° |
| 2026-04-26 02:28 | 28.36207 | 115.41749 | 35139 ft | 533 kts | 76° |
| 2026-04-26 02:28 | 28.36431 | 115.50142 | 35104 ft | 548 kts | 98° |
| 2026-04-26 02:29 | 28.32903 | 115.57821 | 35138 ft | 558 kts | 134° |
| 2026-04-26 02:29 | 28.26571 | 115.62664 | 35111 ft | 547 kts | 166° |
| 2026-04-26 02:29 | 28.19307 | 115.65111 | 35163 ft | 544 kts | 168° |
| 2026-04-26 02:30 | 28.04803 | 115.70264 | 35120 ft | 545 kts | 166° |
| 2026-04-26 02:30 | 27.97491 | 115.72090 | 35106 ft | 531 kts | 184° |
| 2026-04-26 02:30 | 27.90385 | 115.71248 | 35130 ft | 513 kts | 204° |
| 2026-04-26 02:31 | 27.77070 | 115.65743 | 35121 ft | 510 kts | 207° |
| 2026-04-26 02:31 | 27.63738 | 115.60368 | 35122 ft | 509 kts | 207° |
| 2026-04-26 02:32 | 27.50388 | 115.54954 | 35134 ft | 509 kts | 207° |
| 2026-04-26 02:32 | 27.37057 | 115.49605 | 35133 ft | 509 kts | 207° |
| 2026-04-26 02:33 | 27.23710 | 115.44262 | 35136 ft | 510 kts | 207° |
| 2026-04-26 02:33 | 27.10344 | 115.38922 | 35133 ft | 510 kts | 207° |
| 2026-04-26 02:34 | 26.96972 | 115.33581 | 35129 ft | 510 kts | 207° |
| 2026-04-26 02:34 | 26.83605 | 115.28254 | 35140 ft | 510 kts | 207° |
| 2026-04-26 02:35 | 26.70248 | 115.22931 | 35124 ft | 510 kts | 207° |
| 2026-04-26 02:35 | 26.56863 | 115.17588 | 35135 ft | 510 kts | 206° |
| 2026-04-26 02:36 | 26.43484 | 115.12267 | 35150 ft | 510 kts | 206° |
| 2026-04-26 02:36 | 26.32712 | 115.07990 | 35140 ft | 511 kts | 206° |